Time;durP1;ratioP1;P1;durP2;ratioP2;P2;SDS_P1;SDS_P2;PMS_P1;PMS_P2;Temp;Humidity;BMP_temperature;BMP_pressure;BME280_temperature;BME280_humidity;BME280_pressure;Samples;Min_cycle;Max_cycle;Signal;HPM_P1;HPM_P2
2020/12/24 00:05:40;;;;;;;30.27;18.10;;;;;;;6.20;88.29;98575.84;493575;1144;66329;-66
2020/12/24 00:15:45;;;;;;;27.67;17.67;;;;;;;6.21;88.27;98556.66;493945;1143;65541;-66
2020/12/24 00:25:54;;;;;;;25.85;16.90;;;;;;;6.24;88.78;98546.06;493721;1144;65445;-65
2020/12/24 00:35:58;;;;;;;27.13;18.53;;;;;;;6.25;88.79;98529.48;492860;1144;65596;-64
2020/12/24 00:46:02;;;;;;;17.07;13.80;;;;;;;6.30;88.62;98514.37;493452;1144;65629;-65
2020/12/24 00:56:13;;;;;;;19.37;13.37;;;;;;;6.32;88.84;98496.03;493101;1144;65210;-67
2020/12/24 01:06:16;;;;;;;21.20;12.50;;;;;;;6.39;88.94;98473.82;493013;1144;65101;-67
2020/12/24 01:16:21;;;;;;;14.43;11.50;;;;;;;6.45;88.86;98447.36;493625;1144;65567;-67
2020/12/24 01:26:34;;;;;;;11.87;9.83;;;;;;;6.50;88.84;98436.63;494203;1144;65167;-67
2020/12/24 01:36:38;;;;;;;11.10;10.00;;;;;;;6.54;88.90;98424.23;494221;1144;65130;-68
2020/12/24 01:46:42;;;;;;;12.80;8.33;;;;;;;6.57;89.19;98414.41;494035;1144;65483;-68
2020/12/24 01:56:53;;;;;;;12.73;9.70;;;;;;;6.65;89.06;98403.48;494053;1144;65422;-68
2020/12/24 02:06:59;;;;;;;10.83;9.73;;;;;;;6.72;89.18;98378.64;494093;1144;65121;-68
2020/12/24 02:17:03;;;;;;;10.80;9.07;;;;;;;6.81;89.33;98356.33;493314;1144;65463;-67
2020/12/24 02:27:12;;;;;;;14.63;10.87;;;;;;;6.98;89.57;98347.34;493782;1144;65177;-67
2020/12/24 02:37:16;;;;;;;14.40;12.90;;;;;;;7.15;90.00;98342.70;494196;1144;65124;-67
2020/12/24 02:47:20;;;;;;;16.33;13.80;;;;;;;7.34;89.83;98336.20;493233;1144;65212;-67
2020/12/24 02:57:33;;;;;;;18.13;14.67;;;;;;;7.59;90.23;98339.67;493365;1144;65117;-67
2020/12/24 03:07:39;;;;;;;17.43;15.30;;;;;;;7.82;90.45;98330.15;492987;1143;67033;-68
2020/12/24 03:17:43;;;;;;;16.67;13.17;;;;;;;7.96;90.07;98337.84;494005;1144;65240;-67
2020/12/24 03:27:54;;;;;;;18.67;13.17;;;;;;;8.12;90.35;98331.47;494474;1144;65114;-68
2020/12/24 03:37:58;;;;;;;15.63;12.10;;;;;;;8.26;90.27;98310.34;493675;1144;65273;-68
2020/12/24 03:48:02;;;;;;;11.60;9.00;;;;;;;8.34;90.63;98308.95;492860;1144;65111;-68
2020/12/24 03:58:13;;;;;;;10.33;8.37;;;;;;;8.43;89.98;98307.41;494037;1144;65199;-68
2020/12/24 04:08:17;;;;;;;9.40;8.17;;;;;;;8.48;90.35;98300.87;493372;1144;65204;-67
2020/12/24 04:18:21;;;;;;;10.07;9.03;;;;;;;8.50;89.69;98288.53;493237;1144;66035;-66
2020/12/24 04:28:34;;;;;;;10.47;7.60;;;;;;;8.46;89.62;98312.39;493474;1144;65184;-67
2020/12/24 04:38:37;;;;;;;10.60;8.25;;;;;;;8.45;89.59;98318.58;492941;1144;65477;-68
2020/12/24 04:48:44;;;;;;;9.83;6.73;;;;;;;8.32;89.32;98326.54;493502;1142;65933;-68
2020/12/24 04:58:55;;;;;;;8.57;7.00;;;;;;;8.31;89.80;98332.69;493949;1144;65201;-68
2020/12/24 05:09:00;;;;;;;9.10;6.63;;;;;;;8.38;89.86;98321.67;493788;1144;65150;-66
2020/12/24 05:19:12;;;;;;;8.00;6.97;;;;;;;8.44;89.51;98306.45;494259;1144;65146;-67
2020/12/24 05:29:16;;;;;;;10.13;6.90;;;;;;;8.38;89.64;98302.52;494140;1144;65204;-66
2020/12/24 05:39:25;;;;;;;7.90;6.10;;;;;;;8.28;89.37;98303.20;494385;1144;65204;-66
2020/12/24 05:49:29;;;;;;;7.33;6.43;;;;;;;8.26;89.43;98302.50;493902;1144;65231;-68
2020/12/24 05:59:34;;;;;;;9.00;6.77;;;;;;;8.32;89.58;98303.81;495090;1144;65547;-66
2020/12/24 06:09:39;;;;;;;6.00;5.03;;;;;;;8.38;89.46;98305.98;494106;1144;65182;-68
2020/12/24 06:19:44;;;;;;;10.85;5.95;;;;;;;8.43;89.28;98292.56;493801;1144;65181;-67
2020/12/24 06:29:53;;;;;;;6.77;4.70;;;;;;;8.33;88.92;98289.78;494064;1144;65102;-67
2020/12/24 06:39:56;;;;;;;7.20;4.65;;;;;;;8.24;89.01;98298.32;494014;1144;65105;-67
2020/12/24 06:50:01;;;;;;;4.60;4.20;;;;;;;8.28;89.13;98299.78;494018;1144;65700;-68
2020/12/24 07:00:21;;;;;;;4.90;3.33;;;;;;;8.28;89.02;98297.16;494172;1144;65111;-65
2020/12/24 07:10:46;;;;;;;5.90;4.03;;;;;;;8.25;88.69;98306.06;494285;1144;65137;-68
2020/12/24 07:20:51;;;;;;;6.40;3.27;;;;;;;8.26;89.11;98296.45;494307;1144;65580;-66
2020/12/24 07:31:02;;;;;;;6.40;4.20;;;;;;;8.24;88.41;98311.39;494129;1143;65156;-68
2020/12/24 07:41:14;;;;;;;6.33;4.13;;;;;;;8.20;88.43;98313.44;493328;1144;65252;-66
2020/12/24 07:51:20;;;;;;;5.85;4.10;;;;;;;8.19;88.71;98301.28;493271;1144;65540;-67
2020/12/24 08:01:24;;;;;;;4.83;3.90;;;;;;;8.21;88.68;98301.17;493801;1143;65133;-67
2020/12/24 08:11:28;;;;;;;5.43;4.33;;;;;;;8.28;88.74;98299.78;493418;1144;65195;-67
2020/12/24 08:21:38;;;;;;;7.77;5.20;;;;;;;8.34;88.11;98299.30;493592;1144;65214;-66
2020/12/24 08:31:45;;;;;;;7.05;3.55;;;;;;;8.41;87.92;98297.89;494131;1144;65204;-67
2020/12/24 08:41:57;;;;;;;3.80;3.10;;;;;;;8.50;87.81;98274.61;493482;1144;65113;-66
2020/12/24 08:52:12;;;;;;;8.07;4.10;;;;;;;8.56;87.85;98287.23;493991;1144;65578;-67
2020/12/24 09:02:25;;;;;;;9.10;4.70;;;;;;;8.67;87.54;98282.01;493425;1144;65108;-67
2020/12/24 09:12:29;;;;;;;8.40;5.37;;;;;;;8.79;87.31;98271.54;493624;1144;65335;-66
2020/12/24 09:22:33;;;;;;;7.20;5.07;;;;;;;8.88;87.67;98269.98;493892;1144;65232;-67
2020/12/24 09:32:37;;;;;;;8.63;5.10;;;;;;;8.90;86.90;98275.95;493830;1144;65590;-65
2020/12/24 09:42:41;;;;;;;7.33;4.77;;;;;;;8.93;86.56;98288.80;493572;1144;65181;-63
2020/12/24 09:52:45;;;;;;;5.67;3.63;;;;;;;8.96;86.92;98285.93;485216;1144;10002369;-64
2020/12/24 10:02:49;;;;;;;9.63;5.03;;;;;;;9.03;86.15;98281.04;493504;1144;66367;-64
2020/12/24 10:12:53;;;;;;;4.50;3.30;;;;;;;9.06;85.73;98271.16;493150;1143;65180;-65
2020/12/24 10:22:56;;;;;;;5.27;2.50;;;;;;;9.16;85.90;98246.88;492853;1144;65104;-66
2020/12/24 10:33:00;;;;;;;3.77;3.23;;;;;;;9.13;85.58;98240.08;494009;1143;65558;-64
2020/12/24 10:43:05;;;;;;;7.40;2.70;;;;;;;9.15;85.23;98246.02;493664;1144;65102;-65
2020/12/24 10:53:09;;;;;;;5.37;2.73;;;;;;;9.14;85.88;98191.98;493581;1144;65197;-61
2020/12/24 11:03:13;;;;;;;3.77;2.57;;;;;;;9.19;85.02;98163.66;493223;1144;65478;-60
2020/12/24 11:13:17;;;;;;;3.33;2.60;;;;;;;9.09;84.99;98184.50;493157;1144;65149;-61
2020/12/24 11:23:21;;;;;;;5.20;3.27;;;;;;;8.99;84.83;98170.48;492913;1144;65114;-62
2020/12/24 11:33:24;;;;;;;3.97;2.70;;;;;;;8.94;85.14;98190.98;495229;1144;65134;-61
2020/12/24 11:43:28;;;;;;;5.97;2.57;;;;;;;8.92;85.10;98167.53;499385;1144;65107;-61
2020/12/24 11:53:32;;;;;;;5.60;3.00;;;;;;;8.96;84.73;98168.12;494984;1142;65114;-60
2020/12/24 12:03:36;;;;;;;5.10;3.10;;;;;;;9.06;84.64;98158.57;493477;1144;65100;-61
2020/12/24 12:13:40;;;;;;;4.20;2.30;;;;;;;9.03;83.99;98186.78;493871;1143;65195;-61
2020/12/24 12:23:44;;;;;;;3.44;1.60;;;;;;;8.83;83.22;98181.38;485706;1144;10001143;-61
2020/12/24 12:33:49;;;;;;;3.17;2.50;;;;;;;8.58;82.44;98161.55;493509;1144;65185;-60
2020/12/24 12:43:55;;;;;;;2.30;1.80;;;;;;;8.49;82.92;98124.65;493271;1144;65251;-65
2020/12/24 12:53:59;;;;;;;2.70;2.00;;;;;;;8.40;82.74;98141.06;494110;1144;65106;-64
2020/12/24 13:04:10;;;;;;;4.63;2.03;;;;;;;8.31;80.92;98153.08;493870;1144;65127;-64
2020/12/24 13:14:18;;;;;;;2.23;1.20;;;;;;;8.21;79.95;98162.59;493376;1144;65546;-62
2020/12/24 13:24:22;;;;;;;3.10;1.50;;;;;;;8.09;79.27;98153.92;493631;1144;65173;-62
2020/12/24 13:34:26;;;;;;;5.53;2.33;;;;;;;8.01;78.86;98145.83;494281;1144;65171;-62
2020/12/24 13:44:30;;;;;;;3.10;1.50;;;;;;;7.89;77.80;98127.52;493583;1144;65123;-66
2020/12/24 13:54:34;;;;;;;2.87;1.40;;;;;;;7.71;77.36;98146.25;493616;1144;65127;-63
2020/12/24 14:04:45;;;;;;;6.03;1.70;;;;;;;7.46;77.29;98151.66;494071;1144;65175;-62
2020/12/24 14:14:49;;;;;;;21.77;10.30;;;;;;;7.23;77.86;98151.58;493274;1144;65119;-62
2020/12/24 14:24:53;;;;;;;9.13;3.77;;;;;;;6.98;77.78;98153.36;493160;1144;65552;-63
2020/12/24 14:35:05;;;;;;;7.73;4.03;;;;;;;6.67;78.02;98145.12;493302;1144;65118;-62
2020/12/24 14:45:09;;;;;;;8.87;3.80;;;;;;;6.47;77.78;98151.75;494592;1143;65504;-64
2020/12/24 14:55:13;;;;;;;5.97;2.97;;;;;;;6.34;77.82;98139.58;493571;1144;65135;-65
2020/12/24 15:05:24;;;;;;;11.00;5.17;;;;;;;6.24;77.77;98123.77;494177;1144;65134;-64
2020/12/24 15:15:28;;;;;;;8.43;4.27;;;;;;;6.11;77.93;98126.37;492929;1144;65187;-62
2020/12/24 15:25:33;;;;;;;14.43;6.20;;;;;;;5.99;77.82;98120.19;493725;1144;65137;-64
2020/12/24 15:35:43;;;;;;;17.40;7.20;;;;;;;5.98;78.10;98110.71;494008;1144;65391;-63
2020/12/24 15:45:47;;;;;;;21.97;11.40;;;;;;;5.97;78.22;98110.84;493954;1144;65197;-63
2020/12/24 15:55:51;;;;;;;36.33;17.87;;;;;;;5.96;79.00;98116.98;493977;1144;65158;-63
2020/12/24 16:06:02;;;;;;;12.77;7.67;;;;;;;5.84;79.67;98108.23;494060;1142;65141;-63
2020/12/24 16:16:06;;;;;;;20.37;10.30;;;;;;;5.61;80.23;98101.05;493965;1144;65164;-62
2020/12/24 16:26:10;;;;;;;10.90;6.10;;;;;;;5.35;80.97;98091.53;493982;1144;65451;-62
2020/12/24 16:36:22;;;;;;;15.10;7.57;;;;;;;5.07;81.05;98088.98;493567;1144;65560;-63
2020/12/24 16:46:26;;;;;;;15.03;6.77;;;;;;;4.97;80.37;98080.14;493861;1144;65627;-63
2020/12/24 16:56:30;;;;;;;8.00;4.80;;;;;;;4.81;80.33;98080.30;494282;1144;65172;-63
2020/12/24 17:06:39;;;;;;;18.77;8.40;;;;;;;4.75;80.20;98090.14;493289;1142;65339;-63
2020/12/24 17:16:42;;;;;;;18.60;10.07;;;;;;;4.78;80.11;98102.13;494210;1144;65516;-62
2020/12/24 17:26:46;;;;;;;38.97;17.53;;;;;;;4.60;81.43;98086.75;493446;1144;65135;-64
2020/12/24 17:36:56;;;;;;;12.27;7.10;;;;;;;4.45;82.53;98095.53;493769;1144;65114;-62
2020/12/24 17:47:00;;;;;;;14.75;8.20;;;;;;;4.32;82.38;98096.30;493594;1143;65503;-65
2020/12/24 17:57:04;;;;;;;14.07;6.93;;;;;;;4.20;82.43;98110.06;493575;1144;65832;-65
2020/12/24 18:07:15;;;;;;;18.67;9.57;;;;;;;4.03;82.73;98098.11;494170;1144;65207;-64
2020/12/24 18:17:19;;;;;;;8.57;5.53;;;;;;;3.90;82.41;98108.39;494221;1144;65657;-56
2020/12/24 18:27:23;;;;;;;8.90;4.87;;;;;;;3.78;82.44;98104.79;493654;1144;65287;-63
2020/12/24 18:37:37;;;;;;;6.97;4.27;;;;;;;3.72;83.16;98105.99;494065;1144;65111;-64
2020/12/24 18:47:41;;;;;;;9.90;5.13;;;;;;;3.64;83.18;98101.27;493043;1144;65124;-63
2020/12/24 18:57:45;;;;;;;9.47;4.63;;;;;;;3.58;82.84;98098.17;492526;1144;65127;-63
2020/12/24 19:07:53;;;;;;;10.70;6.20;;;;;;;3.60;83.26;98097.16;493826;1144;65794;-64
2020/12/24 19:17:57;;;;;;;11.80;6.65;;;;;;;3.76;83.99;98109.25;493285;1144;65477;-64
2020/12/24 19:28:01;;;;;;;10.60;5.17;;;;;;;4.03;83.40;98101.52;493968;1144;65184;-65
2020/12/24 19:38:13;;;;;;;9.60;5.50;;;;;;;4.26;83.53;98109.66;494327;1144;65189;-64
2020/12/24 19:48:17;;;;;;;13.63;6.53;;;;;;;4.47;83.50;98101.46;493953;1144;65101;-63
2020/12/24 19:58:21;;;;;;;6.70;3.67;;;;;;;4.67;83.14;98107.18;494121;1144;65201;-64
2020/12/24 20:08:42;;;;;;;10.83;4.60;;;;;;;4.89;83.00;98114.42;493578;1144;65537;-64
2020/12/24 20:18:46;;;;;;;7.57;4.37;;;;;;;5.08;82.09;98124.50;493514;1144;65114;-65
2020/12/24 20:28:50;;;;;;;5.63;2.80;;;;;;;5.06;81.92;98149.76;493594;1142;65129;-63
2020/12/24 20:38:55;;;;;;;2.60;1.70;;;;;;;4.89;82.66;98156.05;493657;1144;65190;-64
2020/12/24 20:48:59;;;;;;;2.40;1.80;;;;;;;4.71;82.82;98169.30;493669;1144;65139;-64
2020/12/24 20:59:03;;;;;;;1.83;1.53;;;;;;;4.61;82.57;98166.41;493611;1144;65149;-63
2020/12/24 21:09:14;;;;;;;4.80;1.75;;;;;;;4.46;83.12;98188.17;493672;1144;65114;-65
2020/12/24 21:19:19;;;;;;;3.80;2.47;;;;;;;4.39;83.61;98192.09;493937;1143;65113;-64
2020/12/24 21:29:23;;;;;;;3.67;3.30;;;;;;;4.32;83.69;98196.80;494150;1144;65175;-64
2020/12/24 21:39:33;;;;;;;2.20;2.00;;;;;;;3.98;83.93;98237.78;494060;1144;65197;-65
2020/12/24 21:49:37;;;;;;;4.67;4.20;;;;;;;3.39;83.50;98267.09;493661;1144;65529;-61
2020/12/24 21:59:43;;;;;;;4.95;4.55;;;;;;;3.05;83.96;98287.95;493599;1144;65198;-63
2020/12/24 22:09:51;;;;;;;6.20;5.17;;;;;;;2.89;84.46;98308.67;493677;1144;65553;-64
2020/12/24 22:19:55;;;;;;;6.90;5.57;;;;;;;2.84;84.65;98318.47;494329;1144;65230;-64
2020/12/24 22:29:59;;;;;;;3.50;2.80;;;;;;;2.77;83.64;98334.33;494389;1144;65108;-65
2020/12/24 22:40:13;;;;;;;2.37;2.10;;;;;;;2.78;83.72;98348.14;493815;1144;65127;-65
2020/12/24 22:50:19;;;;;;;4.23;3.20;;;;;;;2.82;83.94;98367.80;493947;1144;65567;-64
2020/12/24 23:00:28;;;;;;;3.60;2.70;;;;;;;2.79;83.93;98386.11;494130;1144;65108;-62
2020/12/24 23:10:34;;;;;;;2.53;2.00;;;;;;;2.71;83.26;98403.80;494218;1144;65561;-65
2020/12/24 23:20:38;;;;;;;2.60;1.60;;;;;;;2.67;83.07;98395.34;493555;1144;65107;-66
2020/12/24 23:30:42;;;;;;;3.03;2.80;;;;;;;2.59;82.95;98415.61;493980;1144;65131;-63
2020/12/24 23:40:53;;;;;;;3.10;2.80;;;;;;;2.45;83.23;98427.51;494176;1144;65596;-64
2020/12/24 23:50:57;;;;;;;2.77;2.40;;;;;;;2.44;83.33;98440.56;493992;1144;65204;-64
